createdAt,value
2022-11-27T00:01:16.451Z,5.96
2022-11-27T00:03:43.597Z,5.91
2022-11-27T00:06:16.068Z,5.97
2022-11-27T00:08:44.060Z,5.98
2022-11-27T00:11:14.766Z,5.92
2022-11-27T00:13:41.531Z,5.89
2022-11-27T00:16:09.088Z,5.88
2022-11-27T00:18:36.140Z,5.86
2022-11-27T00:21:08.130Z,5.88
2022-11-27T00:23:36.174Z,5.83
2022-11-27T00:26:03.614Z,5.87
2022-11-27T00:28:30.366Z,5.88
2022-11-27T00:31:01.995Z,5.92
2022-11-27T00:33:28.561Z,5.93
2022-11-27T00:35:55.229Z,5.90
2022-11-27T00:38:24.732Z,5.95
2022-11-27T00:40:51.186Z,5.95
2022-11-27T00:43:17.582Z,5.97
2022-11-27T00:45:49.442Z,5.92
2022-11-27T00:48:15.823Z,5.98
2022-11-27T00:50:42.268Z,6.02
2022-11-27T00:53:08.701Z,5.99
2022-11-27T00:55:35.122Z,6.01
2022-11-27T00:58:01.535Z,6.01
2022-11-27T01:00:27.990Z,6.03
2022-11-27T01:02:55.513Z,6.03
2022-11-27T01:05:22.327Z,6.08
2022-11-27T01:07:48.785Z,6.07
2022-11-27T01:10:15.432Z,6.09
2022-11-27T01:12:42.981Z,6.09
2022-11-27T01:15:09.992Z,6.12
2022-11-27T01:17:36.472Z,6.12
2022-11-27T01:20:03.194Z,6.10
2022-11-27T01:22:29.652Z,6.12
2022-11-27T01:24:56.084Z,6.07
2022-11-27T01:27:22.482Z,6.11
2022-11-27T01:29:48.894Z,6.00
2022-11-27T01:32:15.326Z,6.04
2022-11-27T01:34:42.013Z,6.03
2022-11-27T01:37:08.566Z,5.98
2022-11-27T01:39:35.065Z,5.92
2022-11-27T01:42:02.613Z,5.92
2022-11-27T01:44:29.009Z,5.90
2022-11-27T01:47:06.943Z,5.87
2022-11-27T01:49:38.465Z,5.81
2022-11-27T01:52:11.793Z,5.84
2022-11-27T01:55:04.424Z,5.84
2022-11-27T01:57:38.859Z,5.84
2022-11-27T02:00:07.714Z,5.81
2022-11-27T02:02:34.283Z,5.80
2022-11-27T02:05:00.697Z,5.80
2022-11-27T02:07:27.382Z,5.83
2022-11-27T02:09:53.873Z,5.74
2022-11-27T02:12:25.483Z,5.82
2022-11-27T02:15:21.749Z,5.82
2022-11-27T02:18:01.623Z,5.86
2022-11-27T02:20:39.324Z,5.90
2022-11-27T02:23:11.797Z,5.90
2022-11-27T02:25:38.143Z,5.93
2022-11-27T02:28:19.272Z,5.95
2022-11-27T02:30:52.739Z,5.92
2022-11-27T02:33:21.270Z,5.96
2022-11-27T02:35:57.721Z,5.98
2022-11-27T02:38:36.765Z,5.97
2022-11-27T02:41:12.921Z,5.95
2022-11-27T02:43:45.127Z,5.95
2022-11-27T02:46:13.390Z,5.97
2022-11-27T02:48:45.858Z,5.96
2022-11-27T02:51:14.682Z,5.97
2022-11-27T02:53:57.949Z,5.91
2022-11-27T02:56:28.100Z,5.92
2022-11-27T02:59:01.904Z,5.95
2022-11-27T03:01:34.787Z,5.95
2022-11-27T03:04:06.238Z,5.96
2022-11-27T03:06:46.689Z,5.96
2022-11-27T03:09:18.233Z,5.96
2022-11-27T03:11:45.656Z,6.00
2022-11-27T03:14:14.052Z,6.02
2022-11-27T03:16:55.717Z,6.02
2022-11-27T03:19:45.739Z,6.01
2022-11-27T03:22:12.771Z,5.99
2022-11-27T03:24:39.775Z,6.02
2022-11-27T03:27:06.717Z,6.00
2022-11-27T03:29:58.122Z,6.00
2022-11-27T03:32:26.894Z,6.01
2022-11-27T03:34:54.112Z,6.05
2022-11-27T03:37:21.415Z,6.00
2022-11-27T03:39:48.416Z,6.02
2022-11-27T03:42:46.025Z,6.05
2022-11-27T03:45:18.611Z,6.03
2022-11-27T03:48:13.296Z,6.05
2022-11-27T03:51:18.298Z,6.06
2022-11-27T03:54:03.276Z,6.07
2022-11-27T03:56:38.407Z,6.06
2022-11-27T03:59:13.234Z,6.09
2022-11-27T04:01:40.604Z,6.10
2022-11-27T04:04:07.866Z,6.12
2022-11-27T04:06:34.347Z,6.15
2022-11-27T04:09:00.799Z,6.11
2022-11-27T04:11:27.355Z,6.13
2022-11-27T04:13:53.883Z,6.14
2022-11-27T04:16:20.644Z,6.14
2022-11-27T04:18:47.141Z,6.16
2022-11-27T04:21:13.562Z,6.14
2022-11-27T04:23:40.808Z,6.14
2022-11-27T04:26:07.178Z,6.14
2022-11-27T04:28:34.631Z,6.13
2022-11-27T04:31:01.393Z,6.13
2022-11-27T04:33:27.934Z,6.07
2022-11-27T04:35:54.597Z,6.12
2022-11-27T04:38:21.929Z,6.11
2022-11-27T04:40:48.627Z,6.11
2022-11-27T04:43:15.042Z,6.07
2022-11-27T04:45:41.512Z,6.08
2022-11-27T04:48:07.895Z,6.02
2022-11-27T04:50:34.425Z,6.05
2022-11-27T04:53:00.889Z,6.05
2022-11-27T04:55:27.514Z,6.03
2022-11-27T04:57:53.984Z,6.01
2022-11-27T05:00:21.339Z,6.02
2022-11-27T05:02:48.029Z,6.02
2022-11-27T05:05:14.767Z,6.01
2022-11-27T05:07:41.178Z,6.00
2022-11-27T05:10:08.464Z,6.00
2022-11-27T05:12:34.952Z,5.99
2022-11-27T05:15:04.471Z,6.00
2022-11-27T05:17:31.510Z,5.99
2022-11-27T05:19:57.895Z,5.97
2022-11-27T05:22:24.291Z,5.90
2022-11-27T05:24:50.694Z,5.89
2022-11-27T05:27:17.277Z,5.97
2022-11-27T05:29:43.746Z,5.99
2022-11-27T05:32:10.204Z,5.96
2022-11-27T05:34:36.581Z,5.98
2022-11-27T05:37:03.043Z,5.96
2022-11-27T05:39:29.508Z,5.95
2022-11-27T05:41:56.058Z,5.97
2022-11-27T05:44:22.469Z,5.90
2022-11-27T05:46:48.964Z,5.95
2022-11-27T05:49:16.488Z,5.92
2022-11-27T05:51:49.382Z,5.90
2022-11-27T05:54:17.766Z,5.90
2022-11-27T05:56:44.182Z,5.87
2022-11-27T05:59:10.961Z,5.81
2022-11-27T06:01:37.547Z,5.87
2022-11-27T06:04:04.245Z,5.87
2022-11-27T06:06:30.969Z,5.85
2022-11-27T06:08:57.356Z,5.85
2022-11-27T06:11:24.202Z,5.86
2022-11-27T06:13:50.727Z,5.87
2022-11-27T06:16:20.724Z,5.88
2022-11-27T06:18:54.782Z,5.85
2022-11-27T06:21:22.745Z,5.80
2022-11-27T06:23:49.741Z,5.81
2022-11-27T06:26:22.412Z,5.79
2022-11-27T06:28:49.819Z,5.80
2022-11-27T06:31:19.308Z,5.79
2022-11-27T06:33:50.049Z,5.77
2022-11-27T06:36:18.002Z,5.76
2022-11-27T06:38:45.767Z,5.71
2022-11-27T06:41:15.270Z,5.74
2022-11-27T06:43:41.858Z,5.76
2022-11-27T06:46:12.025Z,5.69
2022-11-27T06:48:38.472Z,5.71
2022-11-27T06:51:07.177Z,5.71
2022-11-27T06:53:37.107Z,5.76
2022-11-27T06:56:04.697Z,5.61
2022-11-27T06:58:31.470Z,5.75
2022-11-27T07:01:02.587Z,5.76
2022-11-27T07:03:29.460Z,5.70
2022-11-27T07:05:59.672Z,5.70
2022-11-27T07:08:26.076Z,5.69
2022-11-27T07:10:52.513Z,5.70
2022-11-27T07:13:20.344Z,5.69
2022-11-27T07:15:46.746Z,5.72
2022-11-27T07:18:14.114Z,5.74
2022-11-27T07:20:40.581Z,5.74
2022-11-27T07:23:06.998Z,5.73
2022-11-27T07:25:33.378Z,5.60
2022-11-27T07:27:59.790Z,5.73
2022-11-27T07:30:26.206Z,5.74
2022-11-27T07:32:52.654Z,5.73
2022-11-27T07:35:19.120Z,5.74
2022-11-27T07:37:45.521Z,5.72
2022-11-27T07:40:13.084Z,5.72
2022-11-27T07:42:41.319Z,5.72
2022-11-27T07:45:08.966Z,5.75
2022-11-27T07:47:35.384Z,5.74
2022-11-27T07:50:01.968Z,5.73
2022-11-27T07:52:28.387Z,5.76
2022-11-27T07:54:54.826Z,5.76
2022-11-27T07:57:21.310Z,5.75
2022-11-27T07:59:48.056Z,5.75
2022-11-27T08:02:14.784Z,5.77
2022-11-27T08:04:41.651Z,5.77
2022-11-27T08:07:08.354Z,5.78
2022-11-27T08:09:34.856Z,5.79
2022-11-27T08:12:01.421Z,5.78
2022-11-27T08:14:27.883Z,5.79
2022-11-27T08:16:54.524Z,5.83
2022-11-27T08:19:21.571Z,5.82
2022-11-27T08:21:48.030Z,5.79
2022-11-27T08:24:14.527Z,5.78
2022-11-27T08:26:40.997Z,5.75
2022-11-27T08:29:07.460Z,5.74
2022-11-27T08:31:34.127Z,5.71
2022-11-27T08:34:00.907Z,5.71
2022-11-27T08:36:27.940Z,5.70
2022-11-27T08:38:55.646Z,5.71
2022-11-27T08:41:22.097Z,5.71
2022-11-27T08:43:48.752Z,5.71
2022-11-27T08:46:15.316Z,5.69
2022-11-27T08:48:42.862Z,5.68
2022-11-27T08:51:12.514Z,5.66
2022-11-27T08:53:40.103Z,5.68
2022-11-27T08:56:17.951Z,5.67
2022-11-27T08:58:45.383Z,5.64
2022-11-27T09:01:15.909Z,5.67
2022-11-27T09:03:42.455Z,5.68
2022-11-27T09:06:11.514Z,5.66
2022-11-27T09:08:40.106Z,5.68
2022-11-27T09:11:07.400Z,5.66
2022-11-27T09:13:36.956Z,5.67
2022-11-27T09:16:09.372Z,5.64
2022-11-27T09:18:35.871Z,5.60
2022-11-27T09:21:08.362Z,5.63
2022-11-27T09:23:35.644Z,5.64
2022-11-27T09:26:04.288Z,5.62
2022-11-27T09:28:32.004Z,5.63
2022-11-27T09:31:00.705Z,5.62
2022-11-27T09:33:29.246Z,5.64
2022-11-27T09:35:55.901Z,5.63
2022-11-27T09:38:23.660Z,5.58
2022-11-27T09:40:52.127Z,5.61
2022-11-27T09:43:34.559Z,5.59
2022-11-27T09:46:09.042Z,5.61
2022-11-27T09:48:39.792Z,5.59
2022-11-27T09:51:24.733Z,5.59
2022-11-27T09:54:18.147Z,5.59
2022-11-27T09:56:48.056Z,5.59
2022-11-27T09:59:21.026Z,5.57
2022-11-27T10:01:50.921Z,5.57
2022-11-27T10:04:19.693Z,5.54
2022-11-27T10:07:01.377Z,5.58
2022-11-27T10:10:07.737Z,5.52
2022-11-27T10:12:51.053Z,5.60
2022-11-27T10:15:21.478Z,5.61
2022-11-27T10:18:21.582Z,5.61
2022-11-27T10:20:57.704Z,5.61
2022-11-27T10:23:42.948Z,5.63
2022-11-27T10:26:20.038Z,5.61
2022-11-27T10:28:56.135Z,5.60
2022-11-27T10:31:33.307Z,5.61
2022-11-27T10:34:03.212Z,5.61
2022-11-27T10:36:48.831Z,5.59
2022-11-27T10:39:41.299Z,5.59
2022-11-27T10:42:22.640Z,5.60
2022-11-27T10:45:00.475Z,5.62
2022-11-27T10:47:32.286Z,5.62
2022-11-27T10:50:00.479Z,5.62
2022-11-27T10:52:27.070Z,5.62
2022-11-27T10:54:57.769Z,5.65
2022-11-27T10:58:16.003Z,5.66
2022-11-27T11:00:42.449Z,5.62
2022-11-27T11:03:17.410Z,5.67
2022-11-27T11:06:24.285Z,5.56
2022-11-27T11:08:42.533Z,5.68
2022-11-27T11:11:09.850Z,5.69
2022-11-27T11:13:47.053Z,5.72
2022-11-27T11:16:14.846Z,5.75
2022-11-27T11:18:51.618Z,5.72
2022-11-27T11:21:28.408Z,5.74
2022-11-27T11:24:14.507Z,5.71
2022-11-27T11:26:46.379Z,5.68
2022-11-27T11:29:34.818Z,5.76
2022-11-27T11:32:14.703Z,5.77
2022-11-27T11:34:44.059Z,5.76
2022-11-27T11:37:27.543Z,5.76
2022-11-27T11:40:05.767Z,5.77
2022-11-27T11:42:35.724Z,5.77
2022-11-27T11:45:19.203Z,5.81
2022-11-27T11:47:48.060Z,5.78
2022-11-27T11:50:22.900Z,5.79
2022-11-27T11:53:26.724Z,5.78
2022-11-27T11:56:05.717Z,5.76
2022-11-27T11:58:49.041Z,5.78
2022-11-27T12:01:44.875Z,5.79
2022-11-27T12:04:31.818Z,5.78
2022-11-27T12:07:19.415Z,5.80
2022-11-27T12:10:13.488Z,5.79
2022-11-27T12:13:19.158Z,5.79
2022-11-27T12:15:59.034Z,5.80
2022-11-27T12:18:45.746Z,5.81
2022-11-27T12:21:21.518Z,5.81
2022-11-27T12:23:57.442Z,5.81
2022-11-27T12:27:02.254Z,5.83
2022-11-27T12:29:54.942Z,5.80
2022-11-27T12:32:42.052Z,5.80
2022-11-27T12:35:17.710Z,5.82
2022-11-27T12:37:56.872Z,5.81
2022-11-27T12:41:03.160Z,5.82
2022-11-27T12:43:38.673Z,5.81
2022-11-27T12:46:20.522Z,5.82
2022-11-27T12:48:59.303Z,5.81
2022-11-27T12:51:31.525Z,5.81
2022-11-27T12:54:25.757Z,5.83
2022-11-27T12:56:57.831Z,5.85
2022-11-27T12:59:25.447Z,5.86
2022-11-27T13:01:55.002Z,5.86
2022-11-27T13:04:34.541Z,5.85
2022-11-27T13:07:23.947Z,5.87
2022-11-27T13:09:56.110Z,5.89
2022-11-27T13:12:30.000Z,5.87
2022-11-27T13:15:01.755Z,5.90
2022-11-27T13:17:42.814Z,5.91
2022-11-27T13:20:17.801Z,5.92
2022-11-27T13:22:46.170Z,5.91
2022-11-27T13:25:14.847Z,5.94
2022-11-27T13:27:46.027Z,5.93
2022-11-27T13:30:22.303Z,5.90
2022-11-27T13:33:01.747Z,5.95
2022-11-27T13:35:38.615Z,5.95
2022-11-27T13:38:23.185Z,5.92
2022-11-27T13:40:56.039Z,5.95
2022-11-27T13:43:42.589Z,5.99
2022-11-27T13:46:19.616Z,5.99
2022-11-27T13:48:57.601Z,5.99
2022-11-27T13:51:27.870Z,5.97
2022-11-27T13:54:06.102Z,5.97
2022-11-27T13:56:32.526Z,5.97
2022-11-27T13:58:59.092Z,5.96
2022-11-27T14:01:25.841Z,5.89
2022-11-27T14:03:52.720Z,5.98
2022-11-27T14:06:30.316Z,5.98
2022-11-27T14:09:00.909Z,5.99
2022-11-27T14:11:41.321Z,5.97
2022-11-27T14:14:23.672Z,5.97
2022-11-27T14:17:08.367Z,5.96
2022-11-27T14:19:43.303Z,5.97
2022-11-27T14:23:07.111Z,5.97
2022-11-27T14:25:33.908Z,5.97
2022-11-27T14:28:10.287Z,5.99
2022-11-27T14:30:55.443Z,5.98
2022-11-27T14:33:31.207Z,5.98
2022-11-27T14:36:03.160Z,5.99
2022-11-27T14:38:32.298Z,5.98
2022-11-27T14:41:10.265Z,5.87
2022-11-27T14:43:36.834Z,5.99
2022-11-27T14:46:05.206Z,5.95
2022-11-27T14:48:43.757Z,5.95
2022-11-27T14:51:22.214Z,6.00
2022-11-27T14:53:50.719Z,6.00
2022-11-27T14:56:17.958Z,5.97
2022-11-27T14:58:50.311Z,6.01
2022-11-27T15:01:26.267Z,5.97
2022-11-27T15:03:57.549Z,5.98
2022-11-27T15:06:25.554Z,5.99
2022-11-27T15:09:15.803Z,5.98
2022-11-27T15:11:55.190Z,5.96
2022-11-27T15:14:23.913Z,5.97
2022-11-27T15:16:53.141Z,5.93
2022-11-27T15:19:30.350Z,5.95
2022-11-27T15:21:57.807Z,5.92
2022-11-27T15:24:42.189Z,5.92
2022-11-27T15:27:14.702Z,5.91
2022-11-27T15:29:58.791Z,5.87
2022-11-27T15:32:33.941Z,5.90
2022-11-27T15:35:00.454Z,5.92
2022-11-27T15:37:27.200Z,5.92
2022-11-27T15:39:58.772Z,5.92
2022-11-27T15:42:28.720Z,5.90
2022-11-27T15:44:57.346Z,5.87
2022-11-27T15:47:36.718Z,5.90
2022-11-27T15:50:05.337Z,5.85
2022-11-27T15:52:31.901Z,5.85
2022-11-27T15:54:58.471Z,5.88
2022-11-27T15:57:26.305Z,5.87
2022-11-27T15:59:52.862Z,5.86
2022-11-27T16:02:19.328Z,5.89
2022-11-27T16:04:45.770Z,5.89
2022-11-27T16:07:12.259Z,5.87
2022-11-27T16:09:39.787Z,5.87
2022-11-27T16:12:06.685Z,5.87
2022-11-27T16:14:33.218Z,5.82
2022-11-27T16:17:00.602Z,5.80
2022-11-27T16:19:28.283Z,5.84
2022-11-27T16:21:54.789Z,5.84
2022-11-27T16:24:21.311Z,5.79
2022-11-27T16:26:47.902Z,5.86
2022-11-27T16:29:14.540Z,5.86
2022-11-27T16:31:41.206Z,5.86
2022-11-27T16:34:07.858Z,5.86
2022-11-27T16:36:34.724Z,5.87
2022-11-27T16:39:01.131Z,5.88
2022-11-27T16:41:27.719Z,5.89
2022-11-27T16:43:56.064Z,5.90
2022-11-27T16:46:28.052Z,5.92
2022-11-27T16:48:56.243Z,5.92
2022-11-27T16:51:33.424Z,5.98
2022-11-27T16:54:02.111Z,5.99
2022-11-27T16:56:30.283Z,6.01
2022-11-27T16:59:02.822Z,6.01
2022-11-27T17:01:34.124Z,6.01
2022-11-27T17:04:03.445Z,6.03
2022-11-27T17:06:32.076Z,6.02
2022-11-27T17:09:00.443Z,6.05
2022-11-27T17:11:30.792Z,6.05
2022-11-27T17:13:58.516Z,6.06
2022-11-27T17:16:25.215Z,6.06
2022-11-27T17:18:51.777Z,6.04
2022-11-27T17:21:27.295Z,6.06
2022-11-27T17:24:02.351Z,6.05
2022-11-27T17:26:30.664Z,6.07
2022-11-27T17:28:57.482Z,6.08
2022-11-27T17:31:26.851Z,6.07
2022-11-27T17:33:57.103Z,6.07
2022-11-27T17:36:26.092Z,6.06
2022-11-27T17:38:53.753Z,6.04
2022-11-27T17:41:21.055Z,6.03
2022-11-27T17:43:48.128Z,6.03
2022-11-27T17:46:23.714Z,6.00
2022-11-27T17:48:50.824Z,6.01
2022-11-27T17:51:18.573Z,5.98
2022-11-27T17:53:45.358Z,5.95
2022-11-27T17:56:14.745Z,5.87
2022-11-27T17:58:41.554Z,5.93
2022-11-27T18:01:15.162Z,5.91
2022-11-27T18:03:42.598Z,5.90
2022-11-27T18:06:09.321Z,5.89
2022-11-27T18:08:36.195Z,5.86
2022-11-27T18:11:12.646Z,5.86
2022-11-27T18:13:39.714Z,5.85
2022-11-27T18:16:07.590Z,5.83
2022-11-27T18:18:34.152Z,5.80
2022-11-27T18:21:12.941Z,5.79
2022-11-27T18:24:14.556Z,5.79
2022-11-27T18:26:52.614Z,5.77
2022-11-27T18:29:16.788Z,5.74
2022-11-27T18:31:43.474Z,5.75
2022-11-27T18:34:09.973Z,5.77
2022-11-27T18:36:36.372Z,5.75
2022-11-27T18:39:04.881Z,5.74
2022-11-27T18:41:31.259Z,5.73
2022-11-27T18:43:58.074Z,5.72
2022-11-27T18:46:25.696Z,5.69
2022-11-27T18:48:52.320Z,5.69
2022-11-27T18:51:22.071Z,5.66
2022-11-27T18:53:49.394Z,5.56
2022-11-27T18:56:18.792Z,5.62
2022-11-27T18:58:46.699Z,5.63
2022-11-27T19:01:16.696Z,5.63
2022-11-27T19:03:43.853Z,5.60
2022-11-27T19:06:12.790Z,5.55
2022-11-27T19:08:39.655Z,5.57
2022-11-27T19:11:08.569Z,5.56
2022-11-27T19:13:36.086Z,5.56
2022-11-27T19:16:11.144Z,5.52
2022-11-27T19:18:37.899Z,5.52
2022-11-27T19:21:22.031Z,5.53
2022-11-27T19:23:49.615Z,5.53
2022-11-27T19:26:29.101Z,5.53
2022-11-27T19:28:58.006Z,5.52
2022-11-27T19:31:27.701Z,5.49
2022-11-27T19:34:01.015Z,5.49
2022-11-27T19:36:29.639Z,5.49
2022-11-27T19:38:58.719Z,5.47
2022-11-27T19:41:26.404Z,5.47
2022-11-27T19:43:53.525Z,5.48
2022-11-27T19:46:29.837Z,5.47
2022-11-27T19:49:01.629Z,5.48
2022-11-27T19:51:31.473Z,5.43
2022-11-27T19:54:00.307Z,5.47
2022-11-27T19:56:30.379Z,5.40
2022-11-27T19:58:57.001Z,5.45
2022-11-27T20:01:23.486Z,5.41
2022-11-27T20:03:50.804Z,5.43
2022-11-27T20:06:20.051Z,5.41
2022-11-27T20:08:49.581Z,5.46
2022-11-27T20:11:19.528Z,5.44
2022-11-27T20:13:46.327Z,5.43
2022-11-27T20:16:16.812Z,5.44
2022-11-27T20:18:44.075Z,5.43
2022-11-27T20:21:14.613Z,5.43
2022-11-27T20:23:42.291Z,5.42
2022-11-27T20:26:12.256Z,5.43
2022-11-27T20:28:41.293Z,5.40
2022-11-27T20:31:14.001Z,5.41
2022-11-27T20:33:40.484Z,5.40
2022-11-27T20:36:12.154Z,5.40
2022-11-27T20:38:39.099Z,5.41
2022-11-27T20:41:09.703Z,5.40
2022-11-27T20:43:37.256Z,5.38
2022-11-27T20:46:04.525Z,5.40
2022-11-27T20:48:31.385Z,5.39
2022-11-27T20:51:05.532Z,5.37
2022-11-27T20:53:31.936Z,5.38
2022-11-27T20:56:03.099Z,5.37
2022-11-27T20:58:29.498Z,5.37
2022-11-27T21:00:59.700Z,5.38
2022-11-27T21:03:29.803Z,5.39
2022-11-27T21:05:56.189Z,5.37
2022-11-27T21:08:23.000Z,5.38
2022-11-27T21:10:50.523Z,5.41
2022-11-27T21:13:17.626Z,5.38
2022-11-27T21:15:47.705Z,5.37
2022-11-27T21:18:15.245Z,5.39
2022-11-27T21:20:42.285Z,5.38
2022-11-27T21:23:09.785Z,5.38
2022-11-27T21:25:37.994Z,5.39
2022-11-27T21:28:04.606Z,5.40
2022-11-27T21:30:31.237Z,5.39
2022-11-27T21:32:57.654Z,5.39
2022-11-27T21:35:30.092Z,5.39
2022-11-27T21:37:58.073Z,5.37
2022-11-27T21:40:24.463Z,5.36
2022-11-27T21:42:52.031Z,5.37
2022-11-27T21:45:18.578Z,5.37
2022-11-27T21:47:46.095Z,5.36
2022-11-27T21:50:13.673Z,5.38
2022-11-27T21:52:40.291Z,5.37
2022-11-27T21:55:11.864Z,5.36
2022-11-27T21:57:38.730Z,5.38
2022-11-27T22:00:06.066Z,5.35
2022-11-27T22:02:33.589Z,5.37
2022-11-27T22:05:00.055Z,5.37
2022-11-27T22:07:26.514Z,5.38
2022-11-27T22:09:53.047Z,5.35
2022-11-27T22:12:19.461Z,5.35
2022-11-27T22:14:45.928Z,5.36
2022-11-27T22:17:12.419Z,5.36
2022-11-27T22:19:42.293Z,5.38
2022-11-27T22:22:09.018Z,5.35
2022-11-27T22:24:35.494Z,5.36
2022-11-27T22:27:02.191Z,5.38
2022-11-27T22:29:28.589Z,5.28
2022-11-27T22:31:55.083Z,5.39
2022-11-27T22:34:21.705Z,5.39
2022-11-27T22:36:48.152Z,5.38
2022-11-27T22:39:14.984Z,5.39
2022-11-27T22:41:42.060Z,5.36
2022-11-27T22:44:11.877Z,5.38
2022-11-27T22:46:40.910Z,5.40
2022-11-27T22:49:07.883Z,5.39
2022-11-27T22:51:36.231Z,5.40
2022-11-27T22:54:03.929Z,5.40
2022-11-27T22:56:30.544Z,5.39
2022-11-27T22:59:30.364Z,5.40
2022-11-27T23:01:48.770Z,5.39
2022-11-27T23:04:15.602Z,5.35
2022-11-27T23:06:42.055Z,5.41
2022-11-27T23:09:09.628Z,5.40
2022-11-27T23:11:36.006Z,5.42
2022-11-27T23:14:03.393Z,5.39
2022-11-27T23:16:30.017Z,5.44
2022-11-27T23:18:56.459Z,5.35
2022-11-27T23:21:24.157Z,5.44
2022-11-27T23:23:51.451Z,5.44
2022-11-27T23:26:22.383Z,5.46
2022-11-27T23:28:52.122Z,5.47
2022-11-27T23:31:30.422Z,5.50
2022-11-27T23:33:59.181Z,5.50
2022-11-27T23:36:25.793Z,5.50
2022-11-27T23:38:52.450Z,5.49
2022-11-27T23:41:25.269Z,5.51
2022-11-27T23:43:53.329Z,5.51
2022-11-27T23:46:22.620Z,5.49
2022-11-27T23:48:49.347Z,5.53
2022-11-27T23:51:20.811Z,5.53
2022-11-27T23:53:47.797Z,5.53
2022-11-27T23:56:17.211Z,5.54
2022-11-27T23:58:47.053Z,5.55
